Time;durP1;ratioP1;P1;durP2;ratioP2;P2;SDS_P1;SDS_P2;PMS_P1;PMS_P2;Temp;Humidity;BMP_temperature;BMP_pressure;BME280_temperature;BME280_humidity;BME280_pressure;Samples;Min_cycle;Max_cycle;Signal;HPM_P1;HPM_P2
2023/10/11 00:03:17;;;;;;;40.60;16.38;;;16.50;99.90;;;;;;4837114;29;20313;-80
2023/10/11 00:05:45;;;;;;;39.38;16.23;;;16.40;99.90;;;;;;4839488;29;20125;-80
2023/10/11 00:09:00;;;;;;;36.35;15.57;;;16.60;99.90;;;;;;4839269;29;20056;-80
2023/10/11 00:11:01;;;;;;;37.30;15.73;;;16.60;99.90;;;;;;4814140;29;20455;-80
2023/10/11 00:13:35;;;;;;;32.90;16.20;;;17.00;99.90;;;;;;4809370;29;20054;-80
2023/10/11 00:16:08;;;;;;;31.80;15.18;;;16.50;99.90;;;;;;4823005;29;20047;-80
2023/10/11 00:18:35;;;;;;;39.22;16.13;;;16.50;99.90;;;;;;4826410;29;20507;-81
2023/10/11 00:21:12;;;;;;;33.42;15.52;;;17.30;99.90;;;;;;4811001;29;20082;-80
2023/10/11 00:23:41;;;;;;;37.33;16.73;;;16.60;99.90;;;;;;4813021;29;20051;-80
2023/10/11 00:26:07;;;;;;;33.95;15.63;;;16.60;99.90;;;;;;4810980;29;20445;-80
2023/10/11 00:28:33;;;;;;;36.85;15.30;;;16.70;99.90;;;;;;4808049;29;20058;-81
2023/10/11 00:31:01;;;;;;;35.03;16.27;;;16.60;99.90;;;;;;4807097;29;20058;-81
2023/10/11 00:33:28;;;;;;;39.40;15.05;;;16.60;99.90;;;;;;4826506;29;20054;-81
2023/10/11 00:35:55;;;;;;;34.90;15.13;;;16.70;99.90;;;;;;4825339;29;20050;-81
2023/10/11 00:38:27;;;;;;;47.58;17.25;;;16.60;99.90;;;;;;4809599;29;20103;-81
2023/10/11 00:41:01;;;;;;;31.27;15.15;;;16.60;99.90;;;;;;4822462;29;20054;-81
2023/10/11 00:43:41;;;;;;;43.63;17.02;;;16.60;99.90;;;;;;4841160;29;20131;-81
2023/10/11 00:46:14;;;;;;;37.42;15.82;;;16.60;99.90;;;;;;4810932;29;20046;-81
2023/10/11 00:48:53;;;;;;;37.35;16.00;;;16.60;99.90;;;;;;4838087;29;20513;-81
2023/10/11 00:51:25;;;;;;;44.65;17.17;;;16.60;99.90;;;;;;4839618;29;20147;-81
2023/10/11 00:53:52;;;;;;;39.00;16.45;;;16.60;99.90;;;;;;4810460;29;20081;-81
2023/10/11 00:56:20;;;;;;;47.95;17.48;;;16.50;99.90;;;;;;4824502;29;20050;-81
2023/10/11 00:58:50;;;;;;;38.42;17.40;;;16.60;99.90;;;;;;4839720;29;20055;-81
2023/10/11 01:01:16;;;;;;;32.55;16.02;;;16.50;99.90;;;;;;4827796;29;20085;-81
2023/10/11 01:03:41;;;;;;;41.67;16.20;;;16.50;99.90;;;;;;4799503;29;20089;-81
2023/10/11 01:06:10;;;;;;;39.78;16.95;;;16.50;99.90;;;;;;4813767;29;20043;-81
2023/10/11 01:08:39;;;;;;;38.17;16.65;;;16.60;99.90;;;;;;4811268;29;20078;-81
2023/10/11 01:11:13;;;;;;;45.58;16.77;;;16.60;99.90;;;;;;4841181;29;20437;-80
2023/10/11 01:13:42;;;;;;;40.58;16.17;;;16.60;99.90;;;;;;4815565;29;20453;-81
2023/10/11 01:16:11;;;;;;;35.67;16.55;;;16.60;99.90;;;;;;4799357;29;20054;-81
2023/10/11 01:18:42;;;;;;;36.83;16.73;;;17.20;99.90;;;;;;4843558;29;20531;-82
2023/10/11 01:21:13;;;;;;;34.22;16.02;;;16.60;99.90;;;;;;4814207;29;20516;-81
2023/10/11 01:23:39;;;;;;;36.90;16.90;;;16.60;99.90;;;;;;4798812;29;20050;-81
2023/10/11 01:26:09;;;;;;;41.38;17.00;;;16.60;99.90;;;;;;4828365;29;20601;-81
2023/10/11 01:28:37;;;;;;;39.45;16.73;;;16.60;99.90;;;;;;4829665;29;20092;-81
2023/10/11 01:31:08;;;;;;;35.83;15.80;;;16.60;99.90;;;;;;4844476;29;20059;-80
2023/10/11 01:33:41;;;;;;;39.72;16.40;;;16.60;99.90;;;;;;4817282;29;20274;-81
2023/10/11 01:36:08;;;;;;;38.90;16.55;;;16.80;99.90;;;;;;4825820;29;20129;-81
2023/10/11 01:38:48;;;;;;;40.10;16.85;;;16.60;99.90;;;;;;4828981;29;20053;-81
2023/10/11 01:41:20;;;;;;;36.75;15.98;;;16.60;99.90;;;;;;4827239;29;20062;-81
2023/10/11 01:43:47;;;;;;;43.63;16.83;;;16.60;99.90;;;;;;4825626;29;20180;-80
2023/10/11 01:46:27;;;;;;;40.97;17.00;;;16.50;99.90;;;;;;4841439;29;20046;-81
2023/10/11 01:49:05;;;;;;;37.42;17.15;;;16.60;99.90;;;;;;4826666;29;20576;-81
2023/10/11 01:51:38;;;;;;;39.92;15.02;;;16.50;99.90;;;;;;4810503;29;20063;-81
2023/10/11 01:54:04;;;;;;;30.98;14.35;;;16.60;99.90;;;;;;4840295;29;20134;-81
2023/10/11 01:56:30;;;;;;;37.30;14.63;;;16.60;99.90;;;;;;4843930;29;20129;-80
2023/10/11 01:58:56;;;;;;;44.63;17.17;;;16.60;99.90;;;;;;4828556;29;20133;-80
2023/10/11 02:01:28;;;;;;;34.63;15.25;;;16.60;99.90;;;;;;4827941;29;20201;-81
2023/10/11 02:03:58;;;;;;;37.65;14.68;;;16.40;99.90;;;;;;4813025;29;20529;-81
2023/10/11 02:06:26;;;;;;;42.67;15.77;;;16.90;99.90;;;;;;4842347;29;20054;-80
2023/10/11 02:08:52;;;;;;;26.25;13.60;;;16.50;99.90;;;;;;4839137;29;20043;-81
2023/10/11 02:11:23;;;;;;;34.28;16.13;;;16.50;99.90;;;;;;4811893;29;20116;-80
2023/10/11 02:13:49;;;;;;;39.15;15.82;;;16.50;99.90;;;;;;4840926;29;20062;-80
2023/10/11 02:16:15;;;;;;;43.10;16.00;;;15.80;99.90;;;;;;4841072;29;20045;-80
2023/10/11 02:18:51;;;;;;;44.70;16.60;;;16.40;99.90;;;;;;4797610;29;20147;-81
2023/10/11 02:21:18;;;;;;;44.20;16.20;;;16.40;99.90;;;;;;4826350;29;20404;-80
2023/10/11 02:23:44;;;;;;;36.50;15.57;;;16.40;99.90;;;;;;4840719;29;20079;-80
2023/10/11 02:26:12;;;;;;;38.38;15.40;;;16.40;99.90;;;;;;4825185;29;20129;-81
2023/10/11 02:28:45;;;;;;;41.95;15.90;;;16.80;99.90;;;;;;4797272;29;20046;-81
2023/10/11 02:31:14;;;;;;;42.53;16.98;;;16.30;99.90;;;;;;4812628;29;20042;-80
2023/10/11 02:33:40;;;;;;;42.42;17.05;;;16.30;99.90;;;;;;4824678;29;20520;-81
2023/10/11 02:36:10;;;;;;;35.67;16.92;;;16.30;99.90;;;;;;4839767;29;20057;-81
2023/10/11 02:38:47;;;;;;;32.13;15.15;;;16.20;99.90;;;;;;4804631;29;20053;-81
2023/10/11 02:41:24;;;;;;;35.80;15.98;;;16.40;99.90;;;;;;4812381;29;20039;-80
2023/10/11 02:43:53;;;;;;;45.97;17.25;;;16.20;99.90;;;;;;4811824;29;20717;-81
2023/10/11 02:46:23;;;;;;;43.53;17.63;;;16.20;99.90;;;;;;4812849;29;20043;-81
2023/10/11 02:49:06;;;;;;;39.47;16.92;;;16.20;99.90;;;;;;4810264;29;20050;-81
2023/10/11 02:51:33;;;;;;;45.22;17.90;;;16.20;99.90;;;;;;4842648;29;20046;-81
2023/10/11 02:54:04;;;;;;;50.00;17.83;;;16.20;99.90;;;;;;4812425;29;20042;-81
2023/10/11 02:56:46;;;;;;;37.28;17.33;;;16.20;99.90;;;;;;4811080;29;20059;-81
2023/10/11 02:59:19;;;;;;;38.28;16.60;;;16.20;99.90;;;;;;4845949;29;20688;-82
2023/10/11 03:02:04;;;;;;;41.45;16.77;;;16.20;99.90;;;;;;4807960;29;20066;-82
2023/10/11 03:04:32;;;;;;;;;;;16.10;99.90;;;;;;4816055;29;20047;-81
2023/10/11 03:07:00;;;;;;;39.17;17.10;;;16.10;99.90;;;;;;4809166;29;19935;-81
2023/10/11 03:09:33;;;;;;;41.25;17.05;;;16.10;99.90;;;;;;4794447;29;20563;-81
2023/10/11 03:12:06;;;;;;;31.67;15.85;;;16.10;99.90;;;;;;4808719;29;20449;-81
2023/10/11 03:14:41;;;;;;;43.45;16.67;;;16.10;99.90;;;;;;4842496;29;20056;-81
2023/10/11 03:17:23;;;;;;;35.92;16.48;;;16.10;99.90;;;;;;4812476;29;20054;-82
2023/10/11 03:19:52;;;;;;;41.90;18.33;;;16.10;99.90;;;;;;4795312;29;20065;-81
2023/10/11 03:22:20;;;;;;;37.08;16.45;;;16.10;99.90;;;;;;4793463;29;20046;-81
2023/10/11 03:24:59;;;;;;;40.70;16.38;;;16.10;99.90;;;;;;4808268;29;20051;-81
2023/10/11 03:27:36;;;;;;;38.85;16.80;;;16.10;99.90;;;;;;4813394;29;20050;-81
2023/10/11 03:30:01;;;;;;;36.42;15.95;;;16.10;99.90;;;;;;4781588;29;20157;-81
2023/10/11 03:32:27;;;;;;;40.28;15.75;;;16.10;99.90;;;;;;4808492;29;20130;-81
2023/10/11 03:34:55;;;;;;;43.67;17.00;;;16.10;99.90;;;;;;4808952;29;20085;-81
2023/10/11 03:37:20;;;;;;;35.30;14.57;;;16.20;99.90;;;;;;4812593;29;20094;-81
2023/10/11 03:39:56;;;;;;;34.88;15.68;;;16.10;99.90;;;;;;4818281;29;20493;-80
2023/10/11 03:42:27;;;;;;;34.17;15.45;;;16.00;99.90;;;;;;4813290;29;20050;-81
2023/10/11 03:44:53;;;;;;;36.13;15.07;;;16.10;99.90;;;;;;4811141;29;20046;-81
2023/10/11 03:47:26;;;;;;;33.67;15.18;;;16.10;99.90;;;;;;4809092;29;20146;-81
2023/10/11 03:49:52;;;;;;;37.17;14.47;;;16.40;99.90;;;;;;4808017;29;20121;-81
2023/10/11 03:52:24;;;;;;;35.67;15.30;;;16.00;99.90;;;;;;4809033;29;20146;-81
2023/10/11 03:55:01;;;;;;;38.88;15.13;;;16.70;99.90;;;;;;4807936;29;20103;-81
2023/10/11 03:57:35;;;;;;;34.63;15.50;;;16.10;99.90;;;;;;4797759;29;20137;-82
2023/10/11 04:00:01;;;;;;;31.27;14.30;;;16.10;99.90;;;;;;4782012;29;20050;-81
2023/10/11 04:02:26;;;;;;;41.97;14.05;;;16.10;99.90;;;;;;4793959;29;20090;-82
2023/10/11 04:04:53;;;;;;;30.38;13.82;;;16.10;99.90;;;;;;4793388;29;20476;-81
2023/10/11 04:07:22;;;;;;;35.30;14.30;;;16.10;99.90;;;;;;4811181;29;20062;-81
2023/10/11 04:09:49;;;;;;;38.35;14.02;;;16.10;99.90;;;;;;4795934;29;20046;-81
2023/10/11 04:12:14;;;;;;;33.65;13.77;;;16.10;99.90;;;;;;4809415;29;20046;-82
2023/10/11 04:19:53;;;;;;;33.45;15.10;;;16.20;99.90;;;;;;4811163;29;20488;-81
2023/10/11 04:22:25;;;;;;;35.53;13.82;;;16.10;99.90;;;;;;4792875;29;20123;-81
2023/10/11 04:24:54;;;;;;;31.45;13.15;;;16.10;99.90;;;;;;4792594;29;20051;-81
2023/10/11 04:29:50;;;;;;;35.22;13.77;;;16.10;99.90;;;;;;4837570;29;20115;-81
2023/10/11 04:32:40;;;;;;;33.33;14.77;;;16.10;99.90;;;;;;4803146;29;20442;-82
2023/10/11 04:35:02;;;;;;;38.72;14.98;;;16.10;99.90;;;;;;4809829;29;20058;-81
2023/10/11 04:37:30;;;;;;;40.22;13.75;;;16.10;99.90;;;;;;4808361;29;20381;-82
2023/10/11 04:40:00;;;;;;;38.63;13.13;;;16.10;99.90;;;;;;4763384;29;20078;-81
2023/10/11 04:42:29;;;;;;;42.20;13.48;;;16.00;99.90;;;;;;4813300;29;20046;-81
2023/10/11 04:44:56;;;;;;;32.13;12.30;;;16.10;99.90;;;;;;4815862;29;20050;-82
2023/10/11 04:47:27;;;;;;;39.05;13.18;;;16.10;99.90;;;;;;4798601;29;20483;-81
2023/10/11 04:49:52;;;;;;;32.95;12.43;;;16.10;99.90;;;;;;4781188;29;20050;-81
2023/10/11 04:52:34;;;;;;;33.38;12.65;;;16.10;99.90;;;;;;4808759;29;20077;-81
2023/10/11 04:55:10;;;;;;;26.55;10.93;;;16.60;99.90;;;;;;4793533;29;20058;-81
2023/10/11 04:58:04;;;;;;;32.53;11.48;;;16.20;99.90;;;;;;4797910;29;20420;-81
2023/10/11 05:00:31;;;;;;;40.85;11.93;;;16.20;99.90;;;;;;4807471;29;20043;-82
2023/10/11 05:03:02;;;;;;;31.58;12.27;;;16.80;99.90;;;;;;4792292;29;20049;-81
2023/10/11 05:05:28;;;;;;;33.17;12.82;;;16.10;99.90;;;;;;4796365;29;20545;-81
2023/10/11 05:08:14;;;;;;;27.85;11.73;;;16.20;99.90;;;;;;4811347;29;20058;-81
2023/10/11 05:10:43;;;;;;;29.05;12.43;;;16.30;99.90;;;;;;4813080;29;20062;-81
2023/10/11 05:13:13;;;;;;;34.60;12.85;;;16.20;99.90;;;;;;4810749;29;20111;-81
2023/10/11 05:15:47;;;;;;;28.83;11.55;;;16.50;99.90;;;;;;4808803;29;20103;-81
2023/10/11 05:18:18;;;;;;;36.40;13.38;;;16.50;99.90;;;;;;4810072;29;20591;-81
2023/10/11 05:20:57;;;;;;;30.83;13.18;;;16.30;99.90;;;;;;4810614;29;20060;-81
2023/10/11 05:23:32;;;;;;;34.08;13.32;;;16.30;99.90;;;;;;4796095;29;20039;-80
2023/10/11 05:25:58;;;;;;;40.40;13.15;;;16.20;99.90;;;;;;4809680;29;20131;-81
2023/10/11 05:28:26;;;;;;;33.65;13.63;;;16.60;99.90;;;;;;4807810;29;20050;-82
2023/10/11 05:50:50;;;;;;;40.05;13.30;;;16.30;99.90;;;;;;4809817;29;20051;-81
2023/10/11 05:53:01;;;;;;;35.00;13.18;;;16.10;99.90;;;;;;4817508;29;20507;-81
2023/10/11 05:55:27;;;;;;;33.50;13.80;;;17.00;99.90;;;;;;4810815;29;20078;-81
2023/10/11 05:57:52;;;;;;;48.85;15.30;;;16.20;99.90;;;;;;4810086;29;20557;-80
2023/10/11 06:00:23;;;;;;;31.52;13.40;;;16.20;99.90;;;;;;4813129;29;20153;-82
2023/10/11 06:02:51;;;;;;;32.70;13.95;;;16.20;99.90;;;;;;4815239;29;20069;-81
2023/10/11 06:05:22;;;;;;;38.17;13.30;;;16.20;99.90;;;;;;4811473;29;20054;-81
2023/10/11 06:08:00;;;;;;;36.65;14.13;;;16.20;99.90;;;;;;4809538;29;20054;-81
2023/10/11 06:10:41;;;;;;;31.60;13.32;;;16.20;99.90;;;;;;4813502;29;20046;-81
2023/10/11 06:13:08;;;;;;;37.17;14.20;;;16.20;99.90;;;;;;4803609;29;20088;-81
2023/10/11 06:15:35;;;;;;;36.13;14.00;;;16.20;99.90;;;;;;4809557;29;20070;-81
2023/10/11 06:18:01;;;;;;;33.70;13.82;;;16.20;99.90;;;;;;4781036;29;20153;-81
2023/10/11 06:20:27;;;;;;;37.03;14.00;;;16.30;99.90;;;;;;4812634;29;20061;-81
2023/10/11 06:22:56;;;;;;;36.45;14.63;;;16.30;99.90;;;;;;4813076;29;20046;-81
2023/10/11 06:28:13;;;;;;;31.85;13.98;;;16.20;99.90;;;;;;4812626;29;20058;-81
2023/10/11 06:30:42;;;;;;;47.85;15.15;;;16.20;99.90;;;;;;4814640;29;20058;-81
2023/10/11 06:33:12;;;;;;;35.72;14.63;;;16.30;99.90;;;;;;4811990;29;20089;-81
2023/10/11 06:35:49;;;;;;;32.70;13.15;;;16.30;99.90;;;;;;4780103;29;20047;-80
2023/10/11 06:38:18;;;;;;;30.80;14.07;;;16.30;99.90;;;;;;4812410;29;20131;-81
2023/10/11 06:41:25;;;;;;;36.65;14.15;;;16.30;99.90;;;;;;4768572;29;20100;-81
2023/10/11 06:43:34;;;;;;;36.55;12.57;;;16.30;99.90;;;;;;4801319;29;20487;-81
2023/10/11 06:46:01;;;;;;;38.47;12.70;;;16.40;99.90;;;;;;4797503;29;20053;-81
2023/10/11 06:48:30;;;;;;;32.03;12.65;;;16.50;99.90;;;;;;4812640;29;20043;-81
2023/10/11 06:51:02;;;;;;;30.40;11.73;;;16.40;99.90;;;;;;4813666;29;20084;-82
2023/10/11 06:53:28;;;;;;;31.70;12.70;;;16.50;99.90;;;;;;4794658;29;20043;-81
2023/10/11 06:55:57;;;;;;;34.10;13.32;;;16.60;99.90;;;;;;4792842;29;20043;-81
2023/10/11 06:58:23;;;;;;;25.63;12.20;;;16.50;99.90;;;;;;4797582;29;20042;-82
2023/10/11 07:00:48;;;;;;;42.42;13.00;;;17.10;99.90;;;;;;4812134;29;20115;-81
2023/10/11 07:05:49;;;;;;;31.35;11.20;;;16.80;99.90;;;;;;4809273;29;20062;-81
2023/10/11 07:08:20;;;;;;;34.67;11.65;;;16.90;99.90;;;;;;4811490;29;20355;-82
2023/10/11 07:11:10;;;;;;;28.27;11.25;;;16.70;99.90;;;;;;4811796;29;20049;-82
2023/10/11 07:13:57;;;;;;;23.52;10.98;;;16.70;99.90;;;;;;4840079;29;20080;-82
2023/10/11 07:16:27;;;;;;;31.13;11.65;;;16.30;99.90;;;;;;4812806;29;20054;-82
2023/10/11 07:18:57;;;;;;;30.23;10.50;;;16.80;99.90;;;;;;4811835;29;20472;-82
2023/10/11 07:21:41;;;;;;;31.70;11.73;;;16.80;99.90;;;;;;4809533;29;20049;-81
2023/10/11 07:24:19;;;;;;;31.52;11.93;;;16.80;99.90;;;;;;4809797;29;20058;-81
2023/10/11 07:29:16;;;;;;;34.65;11.32;;;16.90;99.90;;;;;;4811582;29;20127;-81
2023/10/11 07:31:51;;;;;;;28.50;10.50;;;16.90;99.90;;;;;;4793237;29;20050;-82
2023/10/11 07:34:20;;;;;;;32.63;11.00;;;16.90;99.90;;;;;;4797397;29;20452;-83
2023/10/11 07:36:49;;;;;;;35.25;11.68;;;16.90;99.90;;;;;;4811825;29;20333;-81
2023/10/11 07:39:20;;;;;;;31.73;11.20;;;17.00;99.90;;;;;;4794818;29;20148;-82
2023/10/11 07:41:49;;;;;;;23.27;11.20;;;16.90;99.90;;;;;;4794092;29;20054;-82
2023/10/11 07:44:18;;;;;;;34.00;12.95;;;17.90;99.90;;;;;;4810835;29;20366;-81
2023/10/11 07:46:45;;;;;;;35.47;12.90;;;16.90;99.90;;;;;;4796603;29;20062;-82
2023/10/11 07:49:16;;;;;;;37.13;11.60;;;17.00;99.90;;;;;;4810899;29;20129;-82
2023/10/11 07:51:42;;;;;;;22.33;11.85;;;17.00;99.90;;;;;;4793534;29;20043;-82
2023/10/11 07:54:19;;;;;;;32.50;11.50;;;17.00;99.90;;;;;;4808776;29;20043;-82
2023/10/11 07:56:49;;;;;;;34.30;11.80;;;17.00;99.90;;;;;;4811886;29;20054;-81
2023/10/11 07:59:14;;;;;;;28.30;11.70;;;17.00;99.90;;;;;;4809579;29;20061;-82
2023/10/11 08:01:43;;;;;;;35.53;12.35;;;17.10;99.90;;;;;;4808517;29;20086;-82
2023/10/11 08:04:17;;;;;;;28.15;10.38;;;17.30;99.90;;;;;;4794456;29;20058;-81
2023/10/11 08:06:46;;;;;;;36.80;13.65;;;17.10;99.90;;;;;;4810756;29;20380;-82
2023/10/11 08:09:25;;;;;;;34.17;13.20;;;17.00;99.90;;;;;;4812072;29;20140;-82
2023/10/11 08:11:56;;;;;;;35.92;12.50;;;17.00;99.90;;;;;;4807666;29;20050;-81
2023/10/11 08:14:28;;;;;;;31.63;11.10;;;17.50;99.90;;;;;;4810934;29;20107;-81
2023/10/11 08:16:56;;;;;;;23.58;11.77;;;16.50;99.90;;;;;;4808374;29;20130;-82
2023/10/11 08:19:22;;;;;;;30.40;12.18;;;17.00;99.90;;;;;;4812103;29;20154;-82
2023/10/11 08:21:54;;;;;;;29.60;12.07;;;17.00;99.90;;;;;;4795493;29;20086;-81
2023/10/11 08:24:27;;;;;;;33.03;11.75;;;17.50;99.90;;;;;;4789556;29;20050;-81
2023/10/11 08:27:07;;;;;;;27.58;11.10;;;17.00;99.90;;;;;;4811443;29;20078;-81
2023/10/11 08:29:35;;;;;;;24.77;12.10;;;17.00;99.90;;;;;;4803455;29;20663;-81
2023/10/11 08:32:06;;;;;;;31.40;12.25;;;17.00;99.90;;;;;;4811808;29;20087;-81
2023/10/11 08:34:32;;;;;;;29.75;11.63;;;17.00;99.90;;;;;;4811198;29;20539;-82
2023/10/11 08:36:57;;;;;;;22.45;10.30;;;17.30;99.90;;;;;;4811222;29;20078;-81
2023/10/11 08:39:35;;;;;;;28.20;10.70;;;17.00;99.90;;;;;;4808944;29;20157;-81
2023/10/11 08:42:11;;;;;;;21.85;10.40;;;17.00;99.90;;;;;;4792343;29;20055;-81
2023/10/11 08:44:39;;;;;;;26.67;10.88;;;17.00;99.90;;;;;;4797253;29;20042;-82
2023/10/11 08:47:06;;;;;;;27.27;9.75;;;17.10;99.90;;;;;;4818509;29;20064;-82
2023/10/11 08:49:41;;;;;;;19.95;10.13;;;17.10;99.90;;;;;;4792260;29;20484;-82
2023/10/11 08:52:10;;;;;;;22.45;9.55;;;17.00;99.90;;;;;;4808806;29;20054;-83
2023/10/11 08:54:40;;;;;;;20.73;8.65;;;17.10;99.90;;;;;;4796069;29;20046;-81
2023/10/11 08:57:07;;;;;;;15.98;7.70;;;17.20;99.90;;;;;;4781300;29;20054;-82
2023/10/11 08:59:39;;;;;;;18.08;7.60;;;17.20;99.90;;;;;;4795888;29;20074;-82
2023/10/11 09:02:11;;;;;;;14.38;7.18;;;17.20;99.90;;;;;;4810541;29;20266;-82
2023/10/11 09:05:07;;;;;;;17.02;7.32;;;17.20;99.90;;;;;;4792956;29;20453;-82
2023/10/11 09:07:54;;;;;;;15.93;7.40;;;17.20;99.90;;;;;;4796428;29;20050;-82
2023/10/11 09:10:33;;;;;;;17.10;7.15;;;17.20;99.90;;;;;;4816171;29;20042;-82
2023/10/11 09:13:02;;;;;;;13.95;7.57;;;17.20;99.90;;;;;;4792698;29;20069;-82
2023/10/11 09:15:59;;;;;;;16.60;7.40;;;17.20;99.90;;;;;;4811532;29;20082;-81
2023/10/11 09:18:25;;;;;;;15.57;9.52;;;17.20;99.90;;;;;;4808140;29;20454;-82
2023/10/11 09:21:10;;;;;;;17.50;8.20;;;17.20;99.90;;;;;;4810549;29;20111;-81
2023/10/11 09:23:46;;;;;;;12.73;8.18;;;17.10;99.90;;;;;;4811813;29;20054;-84
2023/10/11 09:26:21;;;;;;;16.60;7.95;;;17.20;99.90;;;;;;4813584;29;20050;-81
2023/10/11 09:28:58;;;;;;;;;;;17.20;99.90;;;;;;4796714;29;20437;-82
2023/10/11 09:31:25;;;;;;;17.05;7.13;;;17.20;99.90;;;;;;4827839;29;19981;-82
2023/10/11 09:33:59;;;;;;;14.15;7.40;;;17.20;99.90;;;;;;4798637;29;20058;-80
2023/10/11 09:36:28;;;;;;;9.18;7.00;;;17.20;99.90;;;;;;4811928;29;20121;-81
2023/10/11 09:38:55;;;;;;;13.68;6.07;;;17.20;99.90;;;;;;4795109;29;20054;-82
2023/10/11 09:41:28;;;;;;;13.77;6.47;;;17.30;99.90;;;;;;4797617;29;20364;-81
2023/10/11 09:43:58;;;;;;;14.95;6.45;;;17.40;99.90;;;;;;4799580;29;20086;-82
2023/10/11 09:46:29;;;;;;;15.45;6.35;;;17.50;99.90;;;;;;4796333;29;20073;-82
2023/10/11 09:48:56;;;;;;;13.07;7.13;;;17.50;99.90;;;;;;4810414;29;20295;-82
2023/10/11 09:51:24;;;;;;;19.73;7.38;;;17.60;99.90;;;;;;4796456;29;20078;-82
2023/10/11 09:53:51;;;;;;;13.80;7.53;;;17.60;99.90;;;;;;4798773;29;20050;-80
2023/10/11 09:56:54;;;;;;;16.10;6.38;;;18.10;99.90;;;;;;4798415;29;20476;-81
2023/10/11 09:59:29;;;;;;;15.63;6.57;;;17.60;99.90;;;;;;4811849;29;20152;-81
2023/10/11 10:02:25;;;;;;;14.10;6.47;;;17.70;99.90;;;;;;4813557;29;20050;-82
2023/10/11 10:04:54;;;;;;;18.42;7.35;;;17.90;99.90;;;;;;4815740;29;20573;-82
2023/10/11 10:10:16;;;;;;;21.02;6.43;;;17.80;99.90;;;;;;4796211;29;20058;-81
2023/10/11 10:12:55;;;;;;;14.10;6.78;;;17.80;99.90;;;;;;4839882;29;20457;-81
2023/10/11 10:15:28;;;;;;;16.50;5.55;;;17.80;99.90;;;;;;4812067;29;20055;-81
2023/10/11 10:17:57;;;;;;;12.48;5.30;;;17.90;99.90;;;;;;4827913;29;20388;-81
2023/10/11 10:20:34;;;;;;;12.23;5.82;;;18.00;99.90;;;;;;4795722;29;20054;-81
2023/10/11 10:23:15;;;;;;;12.00;4.88;;;17.90;99.90;;;;;;4801814;29;20057;-81
2023/10/11 10:25:48;;;;;;;11.82;5.22;;;17.90;99.90;;;;;;4829837;29;20046;-81
2023/10/11 10:28:36;;;;;;;8.65;4.82;;;17.90;99.90;;;;;;4812018;29;20481;-82
2023/10/11 10:31:19;;;;;;;9.48;4.57;;;17.90;99.90;;;;;;4794663;29;20065;-81
2023/10/11 10:34:04;;;;;;;13.88;5.32;;;17.90;99.90;;;;;;4798882;29;20133;-82
2023/10/11 10:36:35;;;;;;;11.80;5.25;;;17.90;99.90;;;;;;4817596;29;20055;-81
2023/10/11 10:39:00;;;;;;;7.65;4.25;;;17.90;99.90;;;;;;4810037;29;20389;-81
2023/10/11 10:41:39;;;;;;;9.98;4.45;;;18.60;99.90;;;;;;4812339;29;20109;-80
2023/10/11 10:44:12;;;;;;;12.32;4.72;;;18.00;99.90;;;;;;4809252;29;20543;-81
2023/10/11 10:46:50;;;;;;;10.10;4.63;;;18.10;99.90;;;;;;4839875;29;20058;-81
2023/10/11 10:49:17;;;;;;;13.48;3.95;;;18.10;99.90;;;;;;4794977;29;20556;-80
2023/10/11 10:51:53;;;;;;;11.65;4.88;;;18.20;99.90;;;;;;4812888;29;20042;-81
2023/10/11 10:54:25;;;;;;;9.13;4.53;;;18.20;99.90;;;;;;4798561;29;20061;-81
2023/10/11 10:56:53;;;;;;;11.30;4.10;;;18.30;99.90;;;;;;4812310;29;20054;-81
2023/10/11 10:59:26;;;;;;;10.85;4.40;;;18.40;99.90;;;;;;4805088;29;20134;-82
2023/10/11 11:01:55;;;;;;;9.65;3.80;;;18.40;99.90;;;;;;4811576;29;20046;-81
2023/10/11 11:04:28;;;;;;;10.32;3.60;;;18.50;99.90;;;;;;4811367;29;20180;-81
2023/10/11 11:06:55;;;;;;;9.75;4.18;;;18.60;99.90;;;;;;4809104;29;20078;-81
2023/10/11 11:09:28;;;;;;;7.45;3.75;;;18.80;99.90;;;;;;4795139;29;20538;-81
2023/10/11 11:12:18;;;;;;;8.52;3.85;;;18.70;99.90;;;;;;4812289;29;20549;-81
2023/10/11 11:14:58;;;;;;;12.57;4.18;;;18.70;99.90;;;;;;4798872;29;20085;-81
2023/10/11 11:17:45;;;;;;;10.70;4.47;;;18.70;99.90;;;;;;4802556;29;20242;-81
2023/10/11 11:22:52;;;;;;;7.55;3.35;;;18.70;99.90;;;;;;4811596;29;20054;-81
2023/10/11 11:28:15;;;;;;;8.35;3.45;;;18.90;99.90;;;;;;4794920;29;20057;-81
2023/10/11 11:34:26;;;;;;;9.38;3.08;;;18.80;99.90;;;;;;4804560;29;20701;-81
2023/10/11 11:37:05;;;;;;;10.23;3.22;;;18.70;99.90;;;;;;4801670;29;20046;-80
2023/10/11 11:39:39;;;;;;;5.95;2.92;;;18.70;99.90;;;;;;4805685;29;20081;-82
2023/10/11 11:42:24;;;;;;;4.82;3.00;;;18.80;99.90;;;;;;4810141;29;20965;-81
2023/10/11 11:44:51;;;;;;;8.15;2.85;;;18.80;99.90;;;;;;4797744;29;20107;-82
2023/10/11 11:47:23;;;;;;;9.18;3.50;;;18.80;99.90;;;;;;4818841;29;20042;-81
2023/10/11 11:49:48;;;;;;;8.43;3.45;;;18.80;99.90;;;;;;4792863;29;20465;-81
2023/10/11 11:52:19;;;;;;;6.90;2.95;;;18.80;99.90;;;;;;4801099;29;20077;-80
2023/10/11 11:54:44;;;;;;;5.18;2.80;;;18.90;99.90;;;;;;4794252;29;20050;-81
2023/10/11 11:57:10;;;;;;;7.15;2.45;;;19.10;99.90;;;;;;4808625;29;20111;-81
2023/10/11 11:59:37;;;;;;;9.20;3.17;;;19.00;99.90;;;;;;4815081;29;20059;-81
2023/10/11 12:02:08;;;;;;;4.03;2.15;;;19.10;99.90;;;;;;4808802;29;20401;-82
2023/10/11 12:04:36;;;;;;;8.05;3.03;;;19.20;99.90;;;;;;4811364;29;20082;-82
2023/10/11 12:07:05;;;;;;;7.28;3.00;;;19.10;99.90;;;;;;4811090;29;20046;-81
2023/10/11 12:09:34;;;;;;;6.05;3.13;;;19.10;99.90;;;;;;4839100;29;20061;-81
2023/10/11 12:12:05;;;;;;;11.35;3.58;;;19.10;99.90;;;;;;4808164;29;20464;-81
2023/10/11 12:14:31;;;;;;;8.10;3.13;;;19.10;99.90;;;;;;4810830;29;20050;-81
2023/10/11 12:16:58;;;;;;;7.85;3.03;;;19.20;99.90;;;;;;4811217;29;20054;-82
2023/10/11 12:19:24;;;;;;;10.25;3.15;;;19.20;99.90;;;;;;4794462;29;20053;-82
2023/10/11 12:21:57;;;;;;;12.38;4.13;;;19.10;99.90;;;;;;4807643;29;20769;-82
2023/10/11 12:24:24;;;;;;;8.73;4.10;;;19.10;99.90;;;;;;4809427;29;20050;-82
2023/10/11 12:26:50;;;;;;;7.38;2.95;;;19.10;99.90;;;;;;4810544;29;20132;-81
2023/10/11 12:29:18;;;;;;;6.07;2.92;;;19.20;99.90;;;;;;4811001;29;20179;-81
2023/10/11 12:31:44;;;;;;;5.78;2.90;;;19.00;99.90;;;;;;4838500;29;20095;-81
2023/10/11 12:34:10;;;;;;;9.70;2.70;;;19.00;99.90;;;;;;4815016;29;20088;-81
2023/10/11 12:36:38;;;;;;;10.52;3.47;;;18.90;99.90;;;;;;4792361;29;20039;-82
2023/10/11 12:39:08;;;;;;;5.55;3.00;;;19.00;99.90;;;;;;4792507;29;20091;-81
2023/10/11 12:41:36;;;;;;;7.03;2.15;;;19.00;99.90;;;;;;4810122;29;20050;-81
2023/10/11 12:44:03;;;;;;;6.90;1.92;;;19.00;99.90;;;;;;4810757;29;20046;-81
2023/10/11 12:46:29;;;;;;;8.45;2.75;;;19.00;99.90;;;;;;4809886;29;20487;-82
2023/10/11 12:48:55;;;;;;;9.73;3.22;;;19.00;99.90;;;;;;4807183;29;20057;-82
2023/10/11 12:51:22;;;;;;;7.22;3.00;;;19.00;99.90;;;;;;4793817;29;20047;-81
2023/10/11 12:53:48;;;;;;;9.48;2.67;;;18.90;99.90;;;;;;4812969;29;20106;-82
2023/10/11 12:56:14;;;;;;;8.55;2.85;;;18.90;99.90;;;;;;4813813;29;20468;-81
2023/10/11 12:58:40;;;;;;;9.82;3.40;;;18.90;99.90;;;;;;4796352;29;20059;-81
2023/10/11 13:01:11;;;;;;;10.90;3.35;;;19.00;99.90;;;;;;4795776;29;20061;-81
2023/10/11 13:03:38;;;;;;;11.15;3.15;;;19.00;99.90;;;;;;4813531;29;20054;-82
2023/10/11 13:06:09;;;;;;;9.57;3.40;;;19.10;99.90;;;;;;4799203;29;20048;-81
2023/10/11 13:08:37;;;;;;;11.40;3.13;;;19.10;99.90;;;;;;4795584;29;20085;-81
2023/10/11 13:11:05;;;;;;;8.60;3.33;;;19.20;99.90;;;;;;4794401;29;20060;-81
2023/10/11 13:13:32;;;;;;;8.25;2.70;;;19.20;99.90;;;;;;4797299;29;20047;-81
2023/10/11 13:16:01;;;;;;;6.78;3.30;;;19.20;99.90;;;;;;4795147;29;20054;-82
2023/10/11 13:18:33;;;;;;;11.38;3.53;;;19.10;99.90;;;;;;4812437;29;20054;-81
2023/10/11 13:20:59;;;;;;;10.50;3.15;;;19.20;99.90;;;;;;4814226;29;20098;-82
2023/10/11 13:23:29;;;;;;;10.02;3.63;;;19.20;99.90;;;;;;4798934;29;20050;-81
2023/10/11 13:25:56;;;;;;;13.13;4.10;;;19.10;99.90;;;;;;4819133;29;20050;-82
2023/10/11 13:28:22;;;;;;;10.35;3.00;;;19.10;99.90;;;;;;4798015;29;20521;-82
2023/10/11 13:30:47;;;;;;;9.63;3.10;;;19.10;99.90;;;;;;4797791;29;20133;-82
2023/10/11 13:33:15;;;;;;;11.45;3.67;;;19.00;99.90;;;;;;4798898;29;20046;-82
2023/10/11 13:35:41;;;;;;;16.50;4.60;;;18.90;99.90;;;;;;4841927;29;20652;-82
2023/10/11 13:38:17;;;;;;;12.52;4.30;;;18.90;99.90;;;;;;4795502;29;20076;-81
2023/10/11 13:40:46;;;;;;;11.32;4.57;;;18.80;99.90;;;;;;4799244;29;20444;-81
2023/10/11 13:43:12;;;;;;;11.32;4.53;;;18.80;99.90;;;;;;4798818;29;20453;-81